createdAt,value
2022-11-15T00:00:26.791Z,7.80
2022-11-15T00:03:19.196Z,7.80
2022-11-15T00:06:05.545Z,7.80
2022-11-15T00:08:51.084Z,7.80
2022-11-15T00:11:36.559Z,7.80
2022-11-15T00:14:22.191Z,7.80
2022-11-15T00:17:08.597Z,7.80
2022-11-15T00:19:54.095Z,7.80
2022-11-15T00:22:39.853Z,7.90
2022-11-15T00:25:25.470Z,7.80
2022-11-15T00:28:11.434Z,7.80
2022-11-15T00:31:11.634Z,7.80
2022-11-15T00:33:57.025Z,7.90
2022-11-15T00:36:42.510Z,7.80
2022-11-15T00:39:28.046Z,7.90
2022-11-15T00:42:13.590Z,7.80
2022-11-15T00:44:59.060Z,7.90
2022-11-15T00:47:47.964Z,7.80
2022-11-15T00:50:33.490Z,7.90
2022-11-15T00:53:18.858Z,7.80
2022-11-15T00:56:04.671Z,7.90
2022-11-15T00:58:50.119Z,7.90
2022-11-15T01:01:35.669Z,7.90
2022-11-15T01:04:21.518Z,7.90
2022-11-15T01:07:06.689Z,7.90
2022-11-15T01:09:52.488Z,7.90
2022-11-15T01:12:37.789Z,8.00
2022-11-15T01:15:22.911Z,8.00
2022-11-15T01:18:08.687Z,8.00
2022-11-15T01:20:53.888Z,8.00
2022-11-15T01:23:39.804Z,8.00
2022-11-15T01:26:26.189Z,8.00
2022-11-15T01:29:11.808Z,8.10
2022-11-15T01:31:57.272Z,8.10
2022-11-15T01:34:42.690Z,8.10
2022-11-15T01:37:28.254Z,8.20
2022-11-15T01:40:13.970Z,8.10
2022-11-15T01:42:59.234Z,8.20
2022-11-15T01:45:51.355Z,8.20
2022-11-15T01:48:37.561Z,8.20
2022-11-15T01:51:26.999Z,8.30
2022-11-15T01:54:19.838Z,8.30
2022-11-15T01:57:12.358Z,8.30
2022-11-15T02:00:01.311Z,8.40
2022-11-15T02:02:46.634Z,8.40
2022-11-15T02:05:32.856Z,8.50
2022-11-15T02:08:20.936Z,8.50
2022-11-15T02:11:09.837Z,8.50
2022-11-15T02:13:58.346Z,8.50
2022-11-15T02:17:08.295Z,8.60
2022-11-15T02:20:18.319Z,8.60
2022-11-15T02:23:44.134Z,8.60
2022-11-15T02:27:25.756Z,8.70
2022-11-15T02:30:32.258Z,8.70
2022-11-15T02:33:37.975Z,8.70
2022-11-15T02:36:55.146Z,8.80
2022-11-15T02:39:46.662Z,8.80
2022-11-15T02:42:57.334Z,8.90
2022-11-15T02:45:55.051Z,8.90
2022-11-15T02:48:42.453Z,9.00
2022-11-15T02:51:27.794Z,9.00
2022-11-15T02:54:23.756Z,9.00
2022-11-15T02:57:17.187Z,9.00
2022-11-15T03:00:09.126Z,9.00
2022-11-15T03:03:30.214Z,9.10
2022-11-15T03:06:22.256Z,9.10
2022-11-15T03:09:37.358Z,9.10
2022-11-15T03:12:52.570Z,9.10
2022-11-15T03:15:44.351Z,9.20
2022-11-15T03:18:36.699Z,9.20
2022-11-15T03:21:24.986Z,9.20
2022-11-15T03:24:13.254Z,9.20
2022-11-15T03:27:02.466Z,9.20
2022-11-15T03:29:56.156Z,9.30
2022-11-15T03:32:49.947Z,9.30
2022-11-15T03:35:46.058Z,9.30
2022-11-15T03:38:35.935Z,9.40
2022-11-15T03:41:42.159Z,9.40
2022-11-15T03:44:51.873Z,9.40
2022-11-15T03:47:45.966Z,9.50
2022-11-15T03:50:32.492Z,9.60
2022-11-15T03:53:18.218Z,9.60
2022-11-15T03:56:03.821Z,9.60
2022-11-15T03:58:49.333Z,9.70
2022-11-15T04:01:34.703Z,9.70
2022-11-15T04:04:20.387Z,9.80
2022-11-15T04:07:06.640Z,9.90
2022-11-15T04:10:03.971Z,9.90
2022-11-15T04:12:49.106Z,10.00
2022-11-15T04:15:35.299Z,10.00
2022-11-15T04:18:20.685Z,10.00
2022-11-15T04:21:25.190Z,10.00
2022-11-15T04:24:13.259Z,10.10
2022-11-15T04:26:58.944Z,10.10
2022-11-15T04:29:44.199Z,10.10
2022-11-15T04:32:29.609Z,10.10
2022-11-15T04:35:15.158Z,10.10
2022-11-15T04:38:02.231Z,10.10
2022-11-15T04:40:47.848Z,10.20
2022-11-15T04:43:33.406Z,10.20
2022-11-15T04:46:19.282Z,10.20
2022-11-15T04:49:04.678Z,10.20
2022-11-15T04:51:50.510Z,10.20
2022-11-15T04:54:36.116Z,10.20
2022-11-15T04:57:21.589Z,10.30
2022-11-15T05:00:14.123Z,10.30
2022-11-15T05:03:18.087Z,10.30
2022-11-15T05:06:03.780Z,10.30
2022-11-15T05:08:49.203Z,10.30
2022-11-15T05:11:35.036Z,10.30
2022-11-15T05:14:20.437Z,10.40
2022-11-15T05:17:05.558Z,10.40
2022-11-15T05:19:52.837Z,10.40
2022-11-15T05:22:38.327Z,10.50
2022-11-15T05:25:24.532Z,10.50
2022-11-15T05:28:10.047Z,10.60
2022-11-15T05:31:09.446Z,10.60
2022-11-15T05:33:56.902Z,10.50
2022-11-15T05:36:45.585Z,10.50
2022-11-15T05:39:30.758Z,10.60
2022-11-15T05:42:17.384Z,10.70
2022-11-15T05:45:07.102Z,10.70
2022-11-15T05:47:55.114Z,10.70
2022-11-15T05:50:45.430Z,10.70
2022-11-15T05:53:31.898Z,10.70
2022-11-15T05:56:17.774Z,10.80
2022-11-15T05:59:04.119Z,10.80
2022-11-15T06:01:49.969Z,10.80
2022-11-15T06:04:35.313Z,10.90
2022-11-15T06:07:20.584Z,10.90
2022-11-15T06:10:06.847Z,10.90
2022-11-15T06:13:03.482Z,10.90
2022-11-15T06:15:49.178Z,11.00
2022-11-15T06:18:35.757Z,10.90
2022-11-15T06:21:21.759Z,11.00
2022-11-15T06:24:07.790Z,10.90
2022-11-15T06:26:53.282Z,10.90
2022-11-15T06:29:39.041Z,11.00
2022-11-15T06:32:24.188Z,11.00
2022-11-15T06:35:09.705Z,11.00
2022-11-15T06:37:55.472Z,11.00
2022-11-15T06:40:40.983Z,10.90
2022-11-15T06:43:26.594Z,11.00
2022-11-15T06:46:12.158Z,11.00
2022-11-15T06:48:57.539Z,11.00
2022-11-15T06:51:43.143Z,11.00
2022-11-15T06:54:28.555Z,11.00
2022-11-15T06:57:14.001Z,11.00
2022-11-15T06:59:59.463Z,11.00
2022-11-15T07:02:45.387Z,11.00
2022-11-15T07:05:31.297Z,11.00
2022-11-15T07:08:16.457Z,11.00
2022-11-15T07:11:06.498Z,11.00
2022-11-15T07:13:51.706Z,11.00
2022-11-15T07:16:38.540Z,11.10
2022-11-15T07:19:23.971Z,11.00
2022-11-15T07:22:09.423Z,11.00
2022-11-15T07:24:55.078Z,11.00
2022-11-15T07:27:40.813Z,11.00
2022-11-15T07:30:27.756Z,11.00
2022-11-15T07:33:13.325Z,11.10
2022-11-15T07:36:07.529Z,11.10
2022-11-15T07:38:53.382Z,11.10
2022-11-15T07:41:39.502Z,11.10
2022-11-15T07:44:26.270Z,11.10
2022-11-15T07:47:11.649Z,11.00
2022-11-15T07:49:57.002Z,11.00
2022-11-15T07:52:42.710Z,11.00
2022-11-15T07:55:30.746Z,11.00
2022-11-15T07:58:16.203Z,11.00
2022-11-15T08:01:11.067Z,11.00
2022-11-15T08:03:56.592Z,11.00
2022-11-15T08:06:42.089Z,11.00
2022-11-15T08:09:27.475Z,11.10
2022-11-15T08:12:13.108Z,11.10
2022-11-15T08:14:58.710Z,11.10
2022-11-15T08:17:44.155Z,11.10
2022-11-15T08:20:31.684Z,11.10
2022-11-15T08:23:17.160Z,11.10
2022-11-15T08:26:05.136Z,11.20
2022-11-15T08:28:50.646Z,11.20
2022-11-15T08:31:37.555Z,11.20
2022-11-15T08:34:23.302Z,11.20
2022-11-15T08:37:08.472Z,11.20
2022-11-15T08:39:54.018Z,11.20
2022-11-15T08:42:39.735Z,11.20
2022-11-15T08:45:25.206Z,11.20
2022-11-15T08:48:10.716Z,11.30
2022-11-15T08:50:57.724Z,11.30
2022-11-15T08:53:43.976Z,11.30
2022-11-15T08:56:29.523Z,11.30
2022-11-15T08:59:15.957Z,11.30
2022-11-15T09:02:01.295Z,11.40
2022-11-15T09:04:46.889Z,11.50
2022-11-15T09:07:32.766Z,11.60
2022-11-15T09:10:18.290Z,11.60
2022-11-15T09:13:03.979Z,11.70
2022-11-15T09:15:49.707Z,11.60
2022-11-15T09:18:35.942Z,11.60
2022-11-15T09:21:21.576Z,11.70
2022-11-15T09:24:07.544Z,11.90
2022-11-15T09:26:53.131Z,12.00
2022-11-15T09:29:38.438Z,12.20
2022-11-15T09:32:24.608Z,12.10
2022-11-15T09:35:10.119Z,12.00
2022-11-15T09:37:56.584Z,11.90
2022-11-15T09:40:42.455Z,11.90
2022-11-15T09:43:59.897Z,12.20
2022-11-15T09:47:20.283Z,12.40
2022-11-15T09:50:13.687Z,12.30
2022-11-15T09:52:45.243Z,12.30
2022-11-15T09:55:22.069Z,12.40
2022-11-15T09:57:59.904Z,12.40
2022-11-15T10:00:48.248Z,12.40
2022-11-15T10:03:31.527Z,12.40
2022-11-15T10:06:05.020Z,12.40
2022-11-15T10:09:06.929Z,12.40
2022-11-15T10:11:39.225Z,12.50
2022-11-15T10:14:16.635Z,12.50
2022-11-15T10:17:12.386Z,12.40
2022-11-15T10:20:18.530Z,12.40
2022-11-15T10:22:57.777Z,12.40
2022-11-15T10:25:31.016Z,12.40
2022-11-15T10:28:16.246Z,12.30
2022-11-15T10:30:55.472Z,12.30
2022-11-15T10:33:39.508Z,12.40
2022-11-15T10:36:21.030Z,12.50
2022-11-15T10:38:53.762Z,12.40
2022-11-15T10:41:31.675Z,12.40
2022-11-15T10:44:24.283Z,12.50
2022-11-15T10:46:57.386Z,12.40
2022-11-15T10:49:30.318Z,12.40
2022-11-15T10:52:02.170Z,12.40
2022-11-15T10:54:41.032Z,12.50
2022-11-15T10:57:19.450Z,12.70
2022-11-15T11:00:27.643Z,12.80
2022-11-15T11:02:57.415Z,12.80
2022-11-15T11:05:41.062Z,12.80
2022-11-15T11:08:11.961Z,12.90
2022-11-15T11:11:00.228Z,12.80
2022-11-15T11:13:31.859Z,12.90
2022-11-15T11:16:27.110Z,12.90
2022-11-15T11:19:24.633Z,12.90
2022-11-15T11:22:12.364Z,12.80
2022-11-15T11:24:59.646Z,12.70
2022-11-15T11:27:43.042Z,12.70
2022-11-15T11:30:13.265Z,12.70
2022-11-15T11:33:22.722Z,12.70
2022-11-15T11:36:50.674Z,12.80
2022-11-15T11:39:39.914Z,12.80
2022-11-15T11:42:35.240Z,12.70
2022-11-15T11:45:36.787Z,12.70
2022-11-15T11:48:14.874Z,12.70
2022-11-15T11:50:45.761Z,12.80
2022-11-15T11:53:40.433Z,12.80
2022-11-15T11:56:29.591Z,12.80
2022-11-15T11:59:11.442Z,12.80
2022-11-15T12:01:44.690Z,12.80
2022-11-15T12:04:37.083Z,12.80
2022-11-15T12:07:20.224Z,12.70
2022-11-15T12:09:59.329Z,12.70
2022-11-15T12:12:43.153Z,12.70
2022-11-15T12:15:09.881Z,12.70
2022-11-15T12:17:39.504Z,12.70
2022-11-15T12:20:24.510Z,12.80
2022-11-15T12:23:05.766Z,12.90
2022-11-15T12:26:00.720Z,12.90
2022-11-15T12:29:05.879Z,12.90
2022-11-15T12:31:42.889Z,13.00
2022-11-15T12:34:21.622Z,12.90
2022-11-15T12:36:51.370Z,12.90
2022-11-15T12:39:19.685Z,12.90
2022-11-15T12:42:06.340Z,12.90
2022-11-15T12:44:33.044Z,13.00
2022-11-15T12:47:25.146Z,13.00
2022-11-15T12:49:52.766Z,13.00
2022-11-15T12:52:20.722Z,13.00
2022-11-15T12:55:00.346Z,13.00
2022-11-15T12:57:34.617Z,12.90
2022-11-15T13:00:25.412Z,13.00
2022-11-15T13:03:24.455Z,13.00
2022-11-15T13:06:00.106Z,13.00
2022-11-15T13:08:41.937Z,13.00
2022-11-15T13:11:45.668Z,12.90
2022-11-15T13:15:25.195Z,13.00
2022-11-15T13:17:56.841Z,13.00
2022-11-15T13:20:32.197Z,12.90
2022-11-15T13:23:16.634Z,12.90
2022-11-15T13:26:14.186Z,12.80
2022-11-15T13:28:51.720Z,12.80
2022-11-15T13:31:38.541Z,12.80
2022-11-15T13:34:51.458Z,12.80
2022-11-15T13:37:21.775Z,12.80
2022-11-15T13:39:50.642Z,12.70
2022-11-15T13:42:21.139Z,12.70
2022-11-15T13:45:02.202Z,12.60
2022-11-15T13:47:32.469Z,12.60
2022-11-15T13:50:01.818Z,12.60
2022-11-15T13:52:37.960Z,12.50
2022-11-15T13:55:18.346Z,12.50
2022-11-15T13:58:07.156Z,12.50
2022-11-15T14:00:44.296Z,12.50
2022-11-15T14:03:20.066Z,12.50
2022-11-15T14:06:13.000Z,12.40
2022-11-15T14:08:41.880Z,12.40
2022-11-15T14:11:21.002Z,12.40
2022-11-15T14:14:09.400Z,12.40
2022-11-15T14:16:38.851Z,12.40
2022-11-15T14:19:10.385Z,12.40
2022-11-15T14:21:37.996Z,12.40
2022-11-15T14:24:20.846Z,12.30
2022-11-15T14:26:49.403Z,12.40
2022-11-15T14:29:30.676Z,12.40
2022-11-15T14:32:22.553Z,12.40
2022-11-15T14:35:03.545Z,12.40
2022-11-15T14:37:36.402Z,12.40
2022-11-15T14:40:06.814Z,12.30
2022-11-15T14:42:33.725Z,12.40
2022-11-15T14:45:00.662Z,12.40
2022-11-15T14:47:27.517Z,12.30
2022-11-15T14:49:54.233Z,12.20
2022-11-15T14:52:35.209Z,12.30
2022-11-15T14:55:11.134Z,12.30
2022-11-15T14:57:37.894Z,12.30
2022-11-15T15:00:06.478Z,12.30
2022-11-15T15:02:41.506Z,12.30
2022-11-15T15:05:22.375Z,12.30
2022-11-15T15:07:50.143Z,12.30
2022-11-15T15:10:39.087Z,12.30
2022-11-15T15:13:06.706Z,12.30
2022-11-15T15:15:38.587Z,12.30
2022-11-15T15:18:09.247Z,12.30
2022-11-15T15:20:39.973Z,12.30
2022-11-15T15:23:16.748Z,12.30
2022-11-15T15:25:44.623Z,12.30
2022-11-15T15:28:11.426Z,12.30
2022-11-15T15:30:38.287Z,12.30
2022-11-15T15:33:05.162Z,12.30
2022-11-15T15:35:35.095Z,12.30
2022-11-15T15:38:02.653Z,12.30
2022-11-15T15:40:33.534Z,12.30
2022-11-15T15:43:00.864Z,12.40
2022-11-15T15:45:28.937Z,12.40
2022-11-15T15:47:56.245Z,12.40
2022-11-15T15:50:30.024Z,12.40
2022-11-15T15:53:00.174Z,12.40
2022-11-15T15:55:27.811Z,12.40
2022-11-15T15:57:55.673Z,12.40
2022-11-15T16:00:25.578Z,12.40
2022-11-15T16:02:54.030Z,12.50
2022-11-15T16:05:22.383Z,12.50
2022-11-15T16:07:49.630Z,12.50
2022-11-15T16:10:37.814Z,12.50
2022-11-15T16:13:04.895Z,12.50
2022-11-15T16:15:32.799Z,12.50
2022-11-15T16:18:01.597Z,12.50
2022-11-15T16:20:49.952Z,12.50
2022-11-15T16:23:22.379Z,12.60
2022-11-15T16:25:58.380Z,12.60
2022-11-15T16:28:32.230Z,12.50
2022-11-15T16:31:20.621Z,12.50
2022-11-15T16:33:47.685Z,12.50
2022-11-15T16:36:30.343Z,12.60
2022-11-15T16:38:58.062Z,12.50
2022-11-15T16:41:24.995Z,12.60
2022-11-15T16:43:52.216Z,12.50
2022-11-15T16:46:25.167Z,12.50
2022-11-15T16:48:54.151Z,12.50
2022-11-15T16:51:21.619Z,12.40
2022-11-15T16:53:51.220Z,12.40
2022-11-15T16:56:30.520Z,12.40
2022-11-15T16:58:59.767Z,12.30
2022-11-15T17:01:33.153Z,12.30
2022-11-15T17:04:12.297Z,12.20
2022-11-15T17:06:41.388Z,12.20
2022-11-15T17:09:25.793Z,12.10
2022-11-15T17:11:53.245Z,12.10
2022-11-15T17:14:20.174Z,12.00
2022-11-15T17:16:46.931Z,11.90
2022-11-15T17:19:17.463Z,11.90
2022-11-15T17:21:45.549Z,11.80
2022-11-15T17:24:12.962Z,11.80
2022-11-15T17:26:41.106Z,11.70
2022-11-15T17:29:08.261Z,11.70
2022-11-15T17:31:36.739Z,11.70
2022-11-15T17:34:06.014Z,11.60
2022-11-15T17:36:34.772Z,11.60
2022-11-15T17:39:01.972Z,11.60
2022-11-15T17:41:29.987Z,11.50
2022-11-15T17:43:59.640Z,11.50
2022-11-15T17:46:28.271Z,11.50
2022-11-15T17:48:57.034Z,11.40
2022-11-15T17:51:24.650Z,11.40
2022-11-15T17:53:52.858Z,11.30
2022-11-15T17:56:22.537Z,11.30
2022-11-15T17:58:52.439Z,11.30
2022-11-15T18:01:27.760Z,11.30
2022-11-15T18:03:56.862Z,11.30
2022-11-15T18:06:25.167Z,11.30
2022-11-15T18:08:55.949Z,11.30
2022-11-15T18:11:33.440Z,11.30
2022-11-15T18:14:05.669Z,11.30
2022-11-15T18:16:35.914Z,11.30
2022-11-15T18:19:08.874Z,11.30
2022-11-15T18:21:55.872Z,11.30
2022-11-15T18:24:31.458Z,11.30
2022-11-15T18:27:00.156Z,11.20
2022-11-15T18:29:27.693Z,11.20
2022-11-15T18:31:55.728Z,11.20
2022-11-15T18:34:33.329Z,11.30
2022-11-15T18:37:02.733Z,11.30
2022-11-15T18:39:30.295Z,11.30
2022-11-15T18:41:57.279Z,11.30
2022-11-15T18:44:24.060Z,11.30
2022-11-15T18:46:51.020Z,11.30
2022-11-15T18:49:19.618Z,11.30
2022-11-15T18:51:47.419Z,11.40
2022-11-15T18:54:16.875Z,11.40
2022-11-15T18:56:45.534Z,11.40
2022-11-15T18:59:13.663Z,11.30
2022-11-15T19:01:47.040Z,11.30
2022-11-15T19:04:19.777Z,11.30
2022-11-15T19:06:49.395Z,11.40
2022-11-15T19:09:19.238Z,11.40
2022-11-15T19:11:48.525Z,11.40
2022-11-15T19:14:18.428Z,11.40
2022-11-15T19:16:54.955Z,11.50
2022-11-15T19:19:25.760Z,11.50
2022-11-15T19:21:53.238Z,11.50
2022-11-15T19:24:20.490Z,11.50
2022-11-15T19:26:47.390Z,11.50
2022-11-15T19:29:18.204Z,11.50
2022-11-15T19:31:45.959Z,11.50
2022-11-15T19:34:12.927Z,11.50
2022-11-15T19:36:43.159Z,11.50
2022-11-15T19:39:17.877Z,11.50
2022-11-15T19:41:45.317Z,11.60
2022-11-15T19:44:13.672Z,11.60
2022-11-15T19:46:41.525Z,11.60
2022-11-15T19:49:10.624Z,11.60
2022-11-15T19:51:39.190Z,11.60
2022-11-15T19:54:08.594Z,11.60
2022-11-15T19:56:36.572Z,11.60
2022-11-15T19:59:04.883Z,11.60
2022-11-15T20:01:39.124Z,11.60
2022-11-15T20:04:07.987Z,11.60
2022-11-15T20:06:39.295Z,11.60
2022-11-15T20:09:06.452Z,11.60
2022-11-15T20:11:34.232Z,11.60
2022-11-15T20:14:06.227Z,11.70
2022-11-15T20:16:33.486Z,11.60
2022-11-15T20:19:00.343Z,11.70
2022-11-15T20:21:27.166Z,11.70
2022-11-15T20:23:55.147Z,11.70
2022-11-15T20:26:22.280Z,11.70
2022-11-15T20:28:49.515Z,11.70
2022-11-15T20:31:17.584Z,11.70
2022-11-15T20:33:45.287Z,11.80
2022-11-15T20:36:15.393Z,11.80
2022-11-15T20:38:43.496Z,11.70
2022-11-15T20:41:12.082Z,11.80
2022-11-15T20:43:41.561Z,11.70
2022-11-15T20:46:08.847Z,11.80
2022-11-15T20:48:36.466Z,11.80
2022-11-15T20:51:19.082Z,11.80
2022-11-15T20:53:46.948Z,11.80
2022-11-15T20:56:18.705Z,11.80
2022-11-15T20:58:46.082Z,11.80
2022-11-15T21:01:16.171Z,11.80
2022-11-15T21:03:43.487Z,11.90
2022-11-15T21:06:11.619Z,11.90
2022-11-15T21:08:57.462Z,11.80
2022-11-15T21:11:43.370Z,11.90
2022-11-15T21:14:10.452Z,11.90
2022-11-15T21:16:38.814Z,11.90
2022-11-15T21:19:06.710Z,11.90
2022-11-15T21:21:35.605Z,11.90
2022-11-15T21:24:08.342Z,12.00
2022-11-15T21:26:36.605Z,12.00
2022-11-15T21:29:03.726Z,12.00
2022-11-15T21:31:31.847Z,12.00
2022-11-15T21:34:02.538Z,12.00
2022-11-15T21:36:30.023Z,12.00
2022-11-15T21:38:56.801Z,12.00
2022-11-15T21:41:23.598Z,12.00
2022-11-15T21:43:50.321Z,12.00
2022-11-15T21:46:17.477Z,12.00
2022-11-15T21:48:44.236Z,12.00
2022-11-15T21:51:13.164Z,12.10
2022-11-15T21:53:40.075Z,12.10
2022-11-15T21:56:08.047Z,12.10
2022-11-15T21:58:35.803Z,12.10
2022-11-15T22:01:21.380Z,12.10
2022-11-15T22:03:48.498Z,12.00
2022-11-15T22:06:18.176Z,12.00
2022-11-15T22:08:46.294Z,12.10
2022-11-15T22:11:14.419Z,12.10
2022-11-15T22:13:41.427Z,12.10
2022-11-15T22:16:09.506Z,12.10
2022-11-15T22:18:37.503Z,12.10
2022-11-15T22:21:10.076Z,12.10
2022-11-15T22:23:37.337Z,12.20
2022-11-15T22:26:05.339Z,12.10
2022-11-15T22:28:32.532Z,12.10
2022-11-15T22:31:00.636Z,12.10
2022-11-15T22:33:30.707Z,12.10
2022-11-15T22:35:58.137Z,12.10
2022-11-15T22:38:25.872Z,12.10
2022-11-15T22:40:53.000Z,12.10
2022-11-15T22:43:23.386Z,12.10
2022-11-15T22:45:58.579Z,12.10
2022-11-15T22:48:33.740Z,12.10
2022-11-15T22:51:01.763Z,12.10
2022-11-15T22:53:29.735Z,12.10
2022-11-15T22:56:02.627Z,12.20
2022-11-15T22:58:32.334Z,12.10
2022-11-15T23:01:03.378Z,12.20
2022-11-15T23:03:31.743Z,12.10
2022-11-15T23:06:06.893Z,12.10
2022-11-15T23:08:34.448Z,12.10
2022-11-15T23:11:22.691Z,12.10
2022-11-15T23:13:52.110Z,12.10
2022-11-15T23:16:25.403Z,12.10
2022-11-15T23:18:58.579Z,12.20
2022-11-15T23:21:56.318Z,12.10
2022-11-15T23:24:24.170Z,12.10
2022-11-15T23:26:56.603Z,12.10
2022-11-15T23:29:25.622Z,12.10
2022-11-15T23:32:13.155Z,12.10
2022-11-15T23:34:45.916Z,12.10
2022-11-15T23:37:15.874Z,12.10
2022-11-15T23:39:42.608Z,12.10
2022-11-15T23:42:19.282Z,12.10
2022-11-15T23:44:46.641Z,12.10
2022-11-15T23:47:13.367Z,12.10
2022-11-15T23:49:40.099Z,12.10
2022-11-15T23:52:06.853Z,12.10
2022-11-15T23:54:33.574Z,12.10
2022-11-15T23:57:00.454Z,12.20
2022-11-15T23:59:27.291Z,12.20
